Alcoa, TN

9:27 AM EDT on September 16, 2014 (GMT -0400)
McGhee Tyson | Change Station
CLOSE
Current Station
Airport
Location: Knoxville,
Elevation: 981 ft
Nearby Weather Stations

Elev 981 ft 35.82 °N, 83.99 °W | Updated 34 minutes ago

Mostly Cloudy
Mostly Cloudy
71 °F
Feels Like 71 °F
N
7
Wind Variable Wind from WSW

Today
High -- | Low -- °F
--% Chance of Precip.
Yesterday
High -- | Low -- °F
Precip. -- in
7:19 AM 7:41 PM
Last Quarter, 45% visible
Pressure 30.07 in
Visibility 6.0 miles
Clouds Few 600 ft
Few 3500 ft
Mostly Cloudy 9500 ft
Mostly Cloudy 25000 ft
Dew Point 68 °F
Humidity 90%
Rainfall 0.00 in
Snow Depth Not available.
UV 1 out of 12
Pollen 7.50 out of 12
Ozone Good
PM2.5 Good
Flu Activity Not available.
METAR KTYS 161253Z 24006KT 6SM BR FEW006 FEW035 BKN095 BKN250 22/20 A3010 RMK AO2 SLP182 T02170200

More Conditions Fewer Conditions

Pressure 30.07 in
Visibility 6.0 miles
Clouds Few 600 ft
Few 3500 ft
Mostly Cloudy 9500 ft
Mostly Cloudy 25000 ft
Dew Point 68 °F
Humidity 90%
Rainfall 0.00 in
Snow Depth Not available.
UV 1 out of 12
Pollen 7.50 out of 12
Ozone Good
PM2.5 Good
Flu Activity Not available.
METAR KTYS 161253Z 24006KT 6SM BR FEW006 FEW035 BKN095 BKN250 22/20 A3010 RMK AO2 SLP182 T02170200

More Conditions Fewer Conditions

10-Day Weather Forecast

Almanac

Astronomy

Sep. 16, 2014 Rise Set
Actual Time 7:19 AM EDT 7:41 PM EDT
Civil Twilight 6:53 AM EDT 8:07 PM EDT
Nautical Twilight 6:23 AM EDT 8:37 PM EDT
Astronomical Twilight 5:53 AM EDT 9:07 PM EDT
Moon 12:36 AM EDT 2:56 PM EDT
Length of Visible Light 13h 13m
Length of Day
12h 22m
Tomorrow will be 2m 14s shorter.
Last Quarter, 45% of the Moon is Illuminated
Today
Last Quarter
Sep 24
New
Oct 1
First Quarter
Oct 8
Full
Oct 15
Last Quarter

Today's Extremes

State Highs State Lows

Community

WunderPhotos

Upload Photos

1,753,759 photos uploaded!

Nearby

Air Quality

  Air Quality AQ Index Pollutant
Yesterday Good
PM2.5
Yesterday Good
OZONE
Current Good
PM2.5
Current Good
OZONE
Tuesday Moderate
PM2.5
Tuesday Good
OZONE
Wednesday Good
PM2.5
Wednesday Good
OZONE

Snow Depth

Station Depth Elevation
No new snow has been reported.

Earthquake Activity

City Distance Mag. Time & Date
No recent earthquake activity has been reported nearby.
Minimum magnitude displayed is 2.5.

Coastal Water Temperatures

Place Temperature
No Stations Reporting

Nearby Weather Stations